createdAt,value
2023-01-10T00:01:46.186Z,11.25
2023-01-10T00:04:14.278Z,11.25
2023-01-10T00:06:42.351Z,11.24
2023-01-10T00:09:11.502Z,11.13
2023-01-10T00:11:57.211Z,11.00
2023-01-10T00:14:29.956Z,11.08
2023-01-10T00:16:58.242Z,11.07
2023-01-10T00:19:26.619Z,11.05
2023-01-10T00:21:55.049Z,11.05
2023-01-10T00:24:23.665Z,10.98
2023-01-10T00:26:53.022Z,11.01
2023-01-10T00:29:24.182Z,11.05
2023-01-10T00:31:53.626Z,11.05
2023-01-10T00:34:22.070Z,11.02
2023-01-10T00:36:50.127Z,10.98
2023-01-10T00:39:20.131Z,11.03
2023-01-10T00:42:06.013Z,11.10
2023-01-10T00:44:34.191Z,11.17
2023-01-10T00:47:03.658Z,11.18
2023-01-10T00:49:31.694Z,11.16
2023-01-10T00:52:00.064Z,11.17
2023-01-10T00:54:28.200Z,11.25
2023-01-10T00:56:56.512Z,11.26
2023-01-10T00:59:25.465Z,11.22
2023-01-10T01:01:54.123Z,11.22
2023-01-10T01:04:23.923Z,10.98
2023-01-10T01:06:52.039Z,10.93
2023-01-10T01:09:20.265Z,10.88
2023-01-10T01:11:49.459Z,10.79
2023-01-10T01:14:17.504Z,10.71
2023-01-10T01:16:45.531Z,10.72
2023-01-10T01:19:13.809Z,10.69
2023-01-10T01:21:43.280Z,10.67
2023-01-10T01:24:12.298Z,10.78
2023-01-10T01:26:42.772Z,10.82
2023-01-10T01:29:11.104Z,10.86
2023-01-10T01:31:39.136Z,10.92
2023-01-10T01:34:07.464Z,11.02
2023-01-10T01:36:35.536Z,11.01
2023-01-10T01:39:06.267Z,10.99
2023-01-10T01:41:52.024Z,10.95
2023-01-10T01:44:20.893Z,11.00
2023-01-10T01:46:57.027Z,10.88
2023-01-10T01:49:25.892Z,10.93
2023-01-10T01:52:00.737Z,10.84
2023-01-10T01:54:32.306Z,10.92
2023-01-10T01:57:05.293Z,10.88
2023-01-10T01:59:36.836Z,11.03
2023-01-10T02:02:09.591Z,10.92
2023-01-10T02:04:46.861Z,10.82
2023-01-10T02:07:15.817Z,10.85
2023-01-10T02:09:50.043Z,10.83
2023-01-10T02:12:18.507Z,10.83
2023-01-10T02:14:50.580Z,10.82
2023-01-10T02:17:18.691Z,11.03
2023-01-10T02:19:53.595Z,10.93
2023-01-10T02:22:58.693Z,10.99
2023-01-10T02:25:55.007Z,11.05
2023-01-10T02:28:49.229Z,10.98
2023-01-10T02:31:34.230Z,10.88
2023-01-10T02:34:10.481Z,11.07
2023-01-10T02:36:46.707Z,11.16
2023-01-10T02:39:22.343Z,11.09
2023-01-10T02:41:58.099Z,11.20
2023-01-10T02:44:32.800Z,11.30
2023-01-10T02:47:04.850Z,11.24
2023-01-10T02:49:43.177Z,11.13
2023-01-10T02:52:11.844Z,11.03
2023-01-10T02:54:39.939Z,11.11
2023-01-10T02:57:23.935Z,11.09
2023-01-10T03:00:19.889Z,11.10
2023-01-10T03:02:58.597Z,10.99
2023-01-10T03:05:40.986Z,11.11
2023-01-10T03:08:19.597Z,11.09
2023-01-10T03:10:53.140Z,11.09
2023-01-10T03:13:27.211Z,11.03
2023-01-10T03:15:57.234Z,11.12
2023-01-10T03:18:31.943Z,11.13
2023-01-10T03:21:04.754Z,11.14
2023-01-10T03:23:34.339Z,11.15
2023-01-10T03:26:03.886Z,11.08
2023-01-10T03:28:37.675Z,11.13
2023-01-10T03:31:09.721Z,11.09
2023-01-10T03:33:38.762Z,11.11
2023-01-10T03:36:16.773Z,11.12
2023-01-10T03:38:48.080Z,11.09
2023-01-10T03:41:20.054Z,11.14
2023-01-10T03:44:12.038Z,11.11
2023-01-10T03:46:49.947Z,10.93
2023-01-10T03:49:20.649Z,11.01
2023-01-10T03:51:50.486Z,10.93
2023-01-10T03:54:18.684Z,10.96
2023-01-10T03:56:47.601Z,11.03
2023-01-10T03:59:15.696Z,11.09
2023-01-10T04:01:43.867Z,11.03
2023-01-10T04:04:12.684Z,11.09
2023-01-10T04:06:41.051Z,11.10
2023-01-10T04:09:10.791Z,11.11
2023-01-10T04:11:39.098Z,11.17
2023-01-10T04:14:07.400Z,11.09
2023-01-10T04:16:35.519Z,11.14
2023-01-10T04:19:03.610Z,11.13
2023-01-10T04:21:31.590Z,11.18
2023-01-10T04:23:59.655Z,11.10
2023-01-10T04:26:29.029Z,11.14
2023-01-10T04:28:57.099Z,11.16
2023-01-10T04:31:27.057Z,11.08
2023-01-10T04:33:55.127Z,11.04
2023-01-10T04:36:23.157Z,11.12
2023-01-10T04:38:51.164Z,11.04
2023-01-10T04:41:19.201Z,11.11
2023-01-10T04:43:49.747Z,11.18
2023-01-10T04:46:17.994Z,11.25
2023-01-10T04:48:46.027Z,11.29
2023-01-10T04:51:14.041Z,11.25
2023-01-10T04:53:42.583Z,11.12
2023-01-10T04:56:16.114Z,11.26
2023-01-10T04:58:44.139Z,11.23
2023-01-10T05:01:16.018Z,11.23
2023-01-10T05:03:44.340Z,11.08
2023-01-10T05:06:12.356Z,11.04
2023-01-10T05:08:40.378Z,11.03
2023-01-10T05:11:08.368Z,11.02
2023-01-10T05:13:36.396Z,11.05
2023-01-10T05:16:04.593Z,10.94
2023-01-10T05:18:34.530Z,11.00
2023-01-10T05:21:02.935Z,10.96
2023-01-10T05:23:31.181Z,10.97
2023-01-10T05:25:59.259Z,10.72
2023-01-10T05:28:27.247Z,10.87
2023-01-10T05:30:55.306Z,10.86
2023-01-10T05:33:23.384Z,10.87
2023-01-10T05:35:52.803Z,10.75
2023-01-10T05:38:20.878Z,10.77
2023-01-10T05:40:48.910Z,10.92
2023-01-10T05:43:16.916Z,11.02
2023-01-10T05:45:45.006Z,11.07
2023-01-10T05:48:13.107Z,11.12
2023-01-10T05:50:41.212Z,11.07
2023-01-10T05:53:10.853Z,11.15
2023-01-10T05:55:38.870Z,11.11
2023-01-10T05:58:06.958Z,11.07
2023-01-10T06:00:35.003Z,11.24
2023-01-10T06:03:03.046Z,11.34
2023-01-10T06:05:31.619Z,11.18
2023-01-10T06:07:59.678Z,11.33
2023-01-10T06:10:29.083Z,11.27
2023-01-10T06:12:57.110Z,11.24
2023-01-10T06:15:25.127Z,11.25
2023-01-10T06:17:53.378Z,11.26
2023-01-10T06:20:21.376Z,11.13
2023-01-10T06:22:49.816Z,11.15
2023-01-10T06:25:17.937Z,11.15
2023-01-10T06:27:47.463Z,11.11
2023-01-10T06:30:15.916Z,11.05
2023-01-10T06:32:43.936Z,11.16
2023-01-10T06:35:11.967Z,11.23
2023-01-10T06:37:39.996Z,11.26
2023-01-10T06:40:09.162Z,11.15
2023-01-10T06:42:37.275Z,11.11
2023-01-10T06:45:07.751Z,11.01
2023-01-10T06:47:35.980Z,11.03
2023-01-10T06:50:04.066Z,11.00
2023-01-10T06:52:32.139Z,10.85
2023-01-10T06:55:00.121Z,11.03
2023-01-10T06:57:28.507Z,11.03
2023-01-10T06:59:56.747Z,11.08
2023-01-10T07:02:26.157Z,11.15
2023-01-10T07:04:54.208Z,11.19
2023-01-10T07:07:22.251Z,11.19
2023-01-10T07:09:50.348Z,11.23
2023-01-10T07:12:18.381Z,11.17
2023-01-10T07:14:46.431Z,11.30
2023-01-10T07:17:14.500Z,11.46
2023-01-10T07:19:43.875Z,11.48
2023-01-10T07:22:13.121Z,11.43
2023-01-10T07:24:41.142Z,11.47
2023-01-10T07:27:09.169Z,11.44
2023-01-10T07:29:37.188Z,11.37
2023-01-10T07:32:06.430Z,11.30
2023-01-10T07:34:34.497Z,11.28
2023-01-10T07:37:04.077Z,11.33
2023-01-10T07:39:32.193Z,11.34
2023-01-10T07:42:01.342Z,11.32
2023-01-10T07:44:29.332Z,11.30
2023-01-10T07:46:57.343Z,11.15
2023-01-10T07:49:25.362Z,11.25
2023-01-10T07:51:53.446Z,11.18
2023-01-10T07:54:23.127Z,11.23
2023-01-10T07:56:51.112Z,11.13
2023-01-10T07:59:19.376Z,11.05
2023-01-10T08:01:47.672Z,11.02
2023-01-10T08:04:15.743Z,11.11
2023-01-10T08:06:43.786Z,11.20
2023-01-10T08:09:11.936Z,11.22
2023-01-10T08:11:42.582Z,11.22
2023-01-10T08:14:10.783Z,11.19
2023-01-10T08:16:38.867Z,11.25
2023-01-10T08:19:07.119Z,11.36
2023-01-10T08:21:35.157Z,11.37
2023-01-10T08:24:03.167Z,11.42
2023-01-10T08:26:31.183Z,11.33
2023-01-10T08:29:01.489Z,11.44
2023-01-10T08:31:29.550Z,11.42
2023-01-10T08:33:57.643Z,11.42
2023-01-10T08:36:25.811Z,11.46
2023-01-10T08:38:56.532Z,11.63
2023-01-10T08:41:24.663Z,11.68
2023-01-10T08:43:53.482Z,11.84
2023-01-10T08:46:22.903Z,11.85
2023-01-10T08:48:51.777Z,11.71
2023-01-10T08:51:20.224Z,11.64
2023-01-10T08:53:48.254Z,11.64
2023-01-10T08:56:16.302Z,11.69
2023-01-10T08:58:44.351Z,11.68
2023-01-10T09:01:13.795Z,11.73
2023-01-10T09:03:43.440Z,11.81
2023-01-10T09:06:11.524Z,11.87
2023-01-10T09:08:39.630Z,11.85
2023-01-10T09:11:08.271Z,11.74
2023-01-10T09:13:36.332Z,11.82
2023-01-10T09:16:04.943Z,12.00
2023-01-10T09:18:34.159Z,12.10
2023-01-10T09:21:04.031Z,12.06
2023-01-10T09:23:32.179Z,11.99
2023-01-10T09:26:02.877Z,12.14
2023-01-10T09:28:30.937Z,12.17
2023-01-10T09:30:58.978Z,12.20
2023-01-10T09:33:34.962Z,12.14
2023-01-10T09:36:15.671Z,12.17
2023-01-10T09:38:44.147Z,12.15
2023-01-10T09:41:38.960Z,12.44
2023-01-10T09:44:15.619Z,12.58
2023-01-10T09:46:52.392Z,12.61
2023-01-10T09:49:28.967Z,12.81
2023-01-10T09:51:59.536Z,12.76
2023-01-10T09:54:31.104Z,13.03
2023-01-10T09:57:01.238Z,12.79
2023-01-10T09:59:41.464Z,12.78
2023-01-10T10:02:25.761Z,12.60
2023-01-10T10:05:04.845Z,12.69
2023-01-10T10:07:34.362Z,12.77
2023-01-10T10:10:03.103Z,12.89
2023-01-10T10:12:42.747Z,12.93
2023-01-10T10:15:21.364Z,13.02
2023-01-10T10:17:56.901Z,12.90
2023-01-10T10:20:34.983Z,13.08
2023-01-10T10:23:41.052Z,13.17
2023-01-10T10:26:17.653Z,13.11
2023-01-10T10:29:12.438Z,13.23
2023-01-10T10:32:02.835Z,13.63
2023-01-10T10:34:36.707Z,13.76
2023-01-10T10:37:10.379Z,13.67
2023-01-10T10:39:45.924Z,13.66
2023-01-10T10:42:16.944Z,13.63
2023-01-10T10:44:48.363Z,13.79
2023-01-10T10:47:18.742Z,13.71
2023-01-10T10:49:52.338Z,13.77
2023-01-10T10:52:24.951Z,13.61
2023-01-10T10:54:55.806Z,13.55
2023-01-10T10:57:27.312Z,13.39
2023-01-10T10:59:57.166Z,13.23
2023-01-10T11:02:28.493Z,13.20
2023-01-10T11:04:59.661Z,13.08
2023-01-10T11:07:30.661Z,13.08
2023-01-10T11:12:56.370Z,12.84
2023-01-10T11:15:42.457Z,12.88
2023-01-10T11:18:14.864Z,12.89
2023-01-10T11:20:49.984Z,12.93
2023-01-10T11:23:42.977Z,12.81
2023-01-10T11:26:23.428Z,12.94
2023-01-10T11:28:55.419Z,12.89
2023-01-10T11:31:32.360Z,12.96
2023-01-10T11:34:02.588Z,13.01
2023-01-10T11:36:52.431Z,13.03
2023-01-10T11:39:21.136Z,12.91
2023-01-10T11:41:52.537Z,12.77
2023-01-10T11:44:25.766Z,12.99
2023-01-10T11:46:56.769Z,13.16
2023-01-10T11:49:32.105Z,13.15
2023-01-10T11:52:05.151Z,13.00
2023-01-10T11:54:34.424Z,12.86
2023-01-10T11:57:08.407Z,12.93
2023-01-10T11:59:39.202Z,12.93
2023-01-10T12:02:19.642Z,13.04
2023-01-10T12:04:50.480Z,13.05
2023-01-10T12:07:19.194Z,13.10
2023-01-10T12:09:57.108Z,13.17
2023-01-10T12:12:26.955Z,13.19
2023-01-10T12:14:58.707Z,13.02
2023-01-10T12:17:30.103Z,13.04
2023-01-10T12:20:01.571Z,13.06
2023-01-10T12:22:33.322Z,13.01
2023-01-10T12:25:03.703Z,13.11
2023-01-10T12:27:33.985Z,13.14
2023-01-10T12:30:08.388Z,12.99
2023-01-10T12:32:43.951Z,13.03
2023-01-10T12:35:18.869Z,12.80
2023-01-10T12:37:50.163Z,12.89
2023-01-10T12:40:27.306Z,12.95
2023-01-10T12:43:16.704Z,12.89
2023-01-10T12:45:52.393Z,12.96
2023-01-10T12:48:26.401Z,12.95
2023-01-10T12:51:00.650Z,12.97
2023-01-10T12:53:36.803Z,13.00
2023-01-10T12:56:08.079Z,13.02
2023-01-10T12:58:44.223Z,12.92
2023-01-10T13:01:16.576Z,13.03
2023-01-10T13:03:47.351Z,13.06
2023-01-10T13:06:22.859Z,13.00
2023-01-10T13:08:52.344Z,12.99
2023-01-10T13:11:23.853Z,12.95
2023-01-10T13:13:58.128Z,13.01
2023-01-10T13:16:36.551Z,12.97
2023-01-10T13:19:25.938Z,13.08
2023-01-10T13:22:18.709Z,13.06
2023-01-10T13:24:57.531Z,12.90
2023-01-10T13:27:29.544Z,12.97
2023-01-10T13:29:57.928Z,13.02
2023-01-10T13:32:30.816Z,12.99
2023-01-10T13:35:14.296Z,12.88
2023-01-10T13:37:44.422Z,12.93
2023-01-10T13:40:23.363Z,12.84
2023-01-10T13:43:38.717Z,12.84
2023-01-10T13:46:41.733Z,12.90
2023-01-10T13:49:43.105Z,12.90
2023-01-10T13:52:35.232Z,12.87
2023-01-10T13:55:34.247Z,12.87
2023-01-10T13:58:05.435Z,12.74
2023-01-10T14:01:17.306Z,12.77
2023-01-10T14:03:58.044Z,12.76
2023-01-10T14:06:42.235Z,12.43
2023-01-10T14:09:32.670Z,12.35
2023-01-10T14:12:03.084Z,12.29
2023-01-10T14:14:34.330Z,12.37
2023-01-10T14:17:15.873Z,12.26
2023-01-10T14:19:46.575Z,12.31
2023-01-10T14:22:31.154Z,12.41
2023-01-10T14:25:01.732Z,12.30
2023-01-10T14:27:39.486Z,12.36
2023-01-10T14:30:09.227Z,12.36
2023-01-10T14:32:41.005Z,12.33
2023-01-10T14:35:15.392Z,12.42
2023-01-10T14:37:48.887Z,12.32
2023-01-10T14:40:24.008Z,12.26
2023-01-10T14:42:53.165Z,12.40
2023-01-10T14:45:34.809Z,12.51
2023-01-10T14:48:28.944Z,12.52
2023-01-10T14:51:21.378Z,12.34
2023-01-10T14:53:57.589Z,12.35
2023-01-10T14:56:28.674Z,12.23
2023-01-10T14:58:57.070Z,12.27
2023-01-10T15:01:28.521Z,12.28
2023-01-10T15:03:58.522Z,12.34
2023-01-10T15:06:26.818Z,12.19
2023-01-10T15:09:00.872Z,12.31
2023-01-10T15:11:31.639Z,12.34
2023-01-10T15:14:05.473Z,12.21
2023-01-10T15:16:34.897Z,12.25
2023-01-10T15:19:04.030Z,12.27
2023-01-10T15:21:32.472Z,12.21
2023-01-10T15:24:02.279Z,12.30
2023-01-10T15:26:33.539Z,12.36
2023-01-10T15:29:13.671Z,12.34
2023-01-10T15:31:44.496Z,12.37
2023-01-10T15:34:18.305Z,12.22
2023-01-10T15:36:50.287Z,12.25
2023-01-10T15:39:26.477Z,12.37
2023-01-10T15:41:59.170Z,12.18
2023-01-10T15:44:37.355Z,12.21
2023-01-10T15:47:06.166Z,12.15
2023-01-10T15:49:35.014Z,12.19
2023-01-10T15:52:03.452Z,12.13
2023-01-10T15:54:36.599Z,11.99
2023-01-10T15:57:18.720Z,12.10
2023-01-10T15:59:50.061Z,11.89
2023-01-10T16:02:24.752Z,11.91
2023-01-10T16:04:56.756Z,12.06
2023-01-10T16:07:31.219Z,11.93
2023-01-10T16:10:05.399Z,11.94
2023-01-10T16:12:56.206Z,11.93
2023-01-10T16:15:26.815Z,12.03
2023-01-10T16:17:55.713Z,12.02
2023-01-10T16:20:28.664Z,12.05
2023-01-10T16:22:57.343Z,11.96
2023-01-10T16:25:32.264Z,11.96
2023-01-10T16:28:01.020Z,12.06
2023-01-10T16:30:31.580Z,12.15
2023-01-10T16:33:01.577Z,12.05
2023-01-10T16:35:29.879Z,12.00
2023-01-10T16:37:59.273Z,12.05
2023-01-10T16:40:35.746Z,11.98
2023-01-10T16:43:22.172Z,11.94
2023-01-10T16:45:53.227Z,11.74
2023-01-10T16:48:22.440Z,11.78
2023-01-10T16:50:50.700Z,11.64
2023-01-10T16:53:20.309Z,11.72
2023-01-10T16:55:51.537Z,11.55
2023-01-10T16:58:21.378Z,11.67
2023-01-10T17:00:52.647Z,11.58
2023-01-10T17:03:23.545Z,11.66
2023-01-10T17:05:52.499Z,11.68
2023-01-10T17:08:22.960Z,11.84
2023-01-10T17:10:56.361Z,11.60
2023-01-10T17:13:27.180Z,11.75
2023-01-10T17:15:55.525Z,11.60
2023-01-10T17:18:24.964Z,11.75
2023-01-10T17:20:53.524Z,11.74
2023-01-10T17:23:21.815Z,11.69
2023-01-10T17:25:50.774Z,11.66
2023-01-10T17:28:20.469Z,11.66
2023-01-10T17:30:48.756Z,11.64
2023-01-10T17:33:17.064Z,11.62
2023-01-10T17:35:46.568Z,11.59
2023-01-10T17:38:16.541Z,11.63
2023-01-10T17:40:46.274Z,11.58
2023-01-10T17:43:16.179Z,11.37
2023-01-10T17:45:47.861Z,11.45
2023-01-10T17:48:17.842Z,11.29
2023-01-10T17:50:47.016Z,11.13
2023-01-10T17:53:19.138Z,11.32
2023-01-10T17:55:48.158Z,11.22
2023-01-10T17:58:17.076Z,11.30
2023-01-10T18:00:48.713Z,11.32
2023-01-10T18:03:17.422Z,11.34
2023-01-10T18:05:52.911Z,11.02
2023-01-10T18:08:21.564Z,11.08
2023-01-10T18:10:50.787Z,11.02
2023-01-10T18:13:20.881Z,11.00
2023-01-10T18:15:52.471Z,11.07
2023-01-10T18:18:23.032Z,11.19
2023-01-10T18:20:56.314Z,11.01
2023-01-10T18:23:26.825Z,11.20
2023-01-10T18:25:57.939Z,11.15
2023-01-10T18:28:40.152Z,11.04
2023-01-10T18:31:12.252Z,11.02
2023-01-10T18:33:41.854Z,11.23
2023-01-10T18:36:15.734Z,11.13
2023-01-10T18:38:44.649Z,11.00
2023-01-10T18:41:13.399Z,11.16
2023-01-10T18:43:45.305Z,10.87
2023-01-10T18:46:18.912Z,11.10
2023-01-10T18:48:48.192Z,11.13
2023-01-10T18:51:18.911Z,10.80
2023-01-10T18:53:47.674Z,10.87
2023-01-10T18:56:17.247Z,10.77
2023-01-10T18:58:45.638Z,10.79
2023-01-10T19:01:17.190Z,10.71
2023-01-10T19:03:46.658Z,10.93
2023-01-10T19:06:17.420Z,10.82
2023-01-10T19:08:46.523Z,10.49
2023-01-10T19:11:17.059Z,10.69
2023-01-10T19:13:47.038Z,10.57
2023-01-10T19:16:18.869Z,10.60
2023-01-10T19:18:50.930Z,10.57
2023-01-10T19:21:19.811Z,10.65
2023-01-10T19:23:49.898Z,10.63
2023-01-10T19:26:18.875Z,10.57
2023-01-10T19:28:47.779Z,10.71
2023-01-10T19:31:18.447Z,10.86
2023-01-10T19:33:48.317Z,10.77
2023-01-10T19:36:17.203Z,10.65
2023-01-10T19:38:46.010Z,10.63
2023-01-10T19:41:15.002Z,10.62
2023-01-10T19:43:43.502Z,10.65
2023-01-10T19:46:13.909Z,10.74
2023-01-10T19:48:43.620Z,10.77
2023-01-10T19:51:13.259Z,10.78
2023-01-10T19:53:45.397Z,10.70
2023-01-10T19:56:18.334Z,10.69
2023-01-10T19:58:47.874Z,10.77
2023-01-10T20:01:18.511Z,10.85
2023-01-10T20:03:48.504Z,11.01
2023-01-10T20:06:18.634Z,10.87
2023-01-10T20:08:47.685Z,10.89
2023-01-10T20:11:16.516Z,10.90
2023-01-10T20:13:45.678Z,10.82
2023-01-10T20:16:15.171Z,10.86
2023-01-10T20:18:44.043Z,11.07
2023-01-10T20:21:15.544Z,11.04
2023-01-10T20:23:44.788Z,11.04
2023-01-10T20:26:14.667Z,11.14
2023-01-10T20:28:44.217Z,11.11
2023-01-10T20:31:15.734Z,11.28
2023-01-10T20:33:44.080Z,11.37
2023-01-10T20:36:16.100Z,11.37
2023-01-10T20:38:44.465Z,11.34
2023-01-10T20:41:14.320Z,11.14
2023-01-10T20:43:42.725Z,11.28
2023-01-10T20:46:13.161Z,11.30
2023-01-10T20:48:42.059Z,11.38
2023-01-10T20:51:14.545Z,11.47
2023-01-10T20:53:43.064Z,11.51
2023-01-10T20:56:13.835Z,11.48
2023-01-10T20:58:42.262Z,11.46
2023-01-10T21:01:16.875Z,11.47
2023-01-10T21:03:48.425Z,11.49
2023-01-10T21:06:20.615Z,11.59
2023-01-10T21:08:50.663Z,11.66
2023-01-10T21:11:20.283Z,11.51
2023-01-10T21:13:48.646Z,11.46
2023-01-10T21:16:20.211Z,11.54
2023-01-10T21:18:49.068Z,11.49
2023-01-10T21:21:22.694Z,11.75
2023-01-10T21:23:51.143Z,11.81
2023-01-10T21:26:19.466Z,11.84
2023-01-10T21:28:47.970Z,11.78
2023-01-10T21:31:17.627Z,11.82
2023-01-10T21:33:46.400Z,11.87
2023-01-10T21:36:15.177Z,11.93
2023-01-10T21:38:45.201Z,11.97
2023-01-10T21:41:14.910Z,11.96
2023-01-10T21:43:46.254Z,11.83
2023-01-10T21:46:14.708Z,11.97
2023-01-10T21:48:43.134Z,12.00
2023-01-10T21:51:14.602Z,11.93
2023-01-10T21:53:44.263Z,12.17
2023-01-10T21:56:12.531Z,12.03
2023-01-10T21:58:40.821Z,12.07
2023-01-10T22:01:09.294Z,12.05
2023-01-10T22:03:37.592Z,12.15
2023-01-10T22:06:06.273Z,11.83
2023-01-10T22:08:34.539Z,11.89
2023-01-10T22:11:04.199Z,11.85
2023-01-10T22:13:32.518Z,12.20
2023-01-10T22:16:01.634Z,12.11
2023-01-10T22:18:31.330Z,12.37
2023-01-10T22:21:23.523Z,12.44
2023-01-10T22:23:52.401Z,12.37
2023-01-10T22:26:22.126Z,12.30
2023-01-10T22:28:50.586Z,12.22
2023-01-10T22:31:18.972Z,12.35
2023-01-10T22:33:47.242Z,12.23
2023-01-10T22:36:17.455Z,12.32
2023-01-10T22:38:46.571Z,12.36
2023-01-10T22:41:16.638Z,12.46
2023-01-10T22:43:46.594Z,12.50
2023-01-10T22:46:16.610Z,12.33
2023-01-10T22:48:45.306Z,12.15
2023-01-10T22:51:13.674Z,12.35
2023-01-10T22:53:42.051Z,12.45
2023-01-10T22:56:12.489Z,12.56
2023-01-10T22:58:42.362Z,12.55
2023-01-10T23:01:12.151Z,12.51
2023-01-10T23:03:40.474Z,12.36
2023-01-10T23:06:09.039Z,12.19
2023-01-10T23:08:37.808Z,12.38
2023-01-10T23:11:06.396Z,12.43
2023-01-10T23:13:34.944Z,12.46
2023-01-10T23:16:06.410Z,12.55
2023-01-10T23:18:36.716Z,12.60
2023-01-10T23:21:05.537Z,12.51
2023-01-10T23:23:33.785Z,12.50
2023-01-10T23:26:01.737Z,12.47
2023-01-10T23:28:30.831Z,12.55
2023-01-10T23:30:58.930Z,12.74
2023-01-10T23:33:26.988Z,12.63
2023-01-10T23:35:56.457Z,12.74
2023-01-10T23:38:24.510Z,12.75
2023-01-10T23:40:52.658Z,12.66
2023-01-10T23:43:20.873Z,12.72
2023-01-10T23:45:49.144Z,12.63
2023-01-10T23:48:17.828Z,12.69
2023-01-10T23:50:48.619Z,12.74
2023-01-10T23:53:18.516Z,12.76
2023-01-10T23:55:46.853Z,12.92
2023-01-10T23:58:15.625Z,13.00
